sensor_id;sensor_type;location;lat;lon;timestamp;P1;durP1;ratioP1;P2;durP2;ratioP2
15931;SDS011;8065;49.520;11.284;2023-02-11T00:00:46;56.50;;;32.67;;
15931;SDS011;8065;49.520;11.284;2023-02-11T00:03:12;57.13;;;32.83;;
15931;SDS011;8065;49.520;11.284;2023-02-11T00:05:38;54.37;;;31.10;;
15931;SDS011;8065;49.520;11.284;2023-02-11T00:08:05;54.87;;;30.43;;
15931;SDS011;8065;49.520;11.284;2023-02-11T00:10:33;50.30;;;29.77;;
15931;SDS011;8065;49.520;11.284;2023-02-11T00:12:59;51.47;;;29.90;;
15931;SDS011;8065;49.520;11.284;2023-02-11T00:15:26;51.67;;;28.70;;
15931;SDS011;8065;49.520;11.284;2023-02-11T00:17:52;51.30;;;29.17;;
15931;SDS011;8065;49.520;11.284;2023-02-11T00:20:19;46.97;;;27.83;;
15931;SDS011;8065;49.520;11.284;2023-02-11T00:22:46;48.80;;;27.23;;
15931;SDS011;8065;49.520;11.284;2023-02-11T00:25:12;47.13;;;27.33;;
15931;SDS011;8065;49.520;11.284;2023-02-11T00:27:40;48.80;;;27.63;;
15931;SDS011;8065;49.520;11.284;2023-02-11T00:30:07;51.10;;;28.80;;
15931;SDS011;8065;49.520;11.284;2023-02-11T00:32:35;47.87;;;27.57;;
15931;SDS011;8065;49.520;11.284;2023-02-11T00:35:02;52.47;;;29.90;;
15931;SDS011;8065;49.520;11.284;2023-02-11T00:37:28;55.07;;;28.13;;
15931;SDS011;8065;49.520;11.284;2023-02-11T00:39:55;54.53;;;29.90;;
15931;SDS011;8065;49.520;11.284;2023-02-11T00:42:21;54.20;;;29.97;;
15931;SDS011;8065;49.520;11.284;2023-02-11T00:44:49;51.50;;;29.20;;
15931;SDS011;8065;49.520;11.284;2023-02-11T00:47:16;49.27;;;28.10;;
15931;SDS011;8065;49.520;11.284;2023-02-11T00:49:42;49.23;;;29.47;;
15931;SDS011;8065;49.520;11.284;2023-02-11T00:52:09;46.93;;;27.87;;
15931;SDS011;8065;49.520;11.284;2023-02-11T00:54:35;49.83;;;28.80;;
15931;SDS011;8065;49.520;11.284;2023-02-11T00:57:02;50.83;;;27.97;;
15931;SDS011;8065;49.520;11.284;2023-02-11T00:59:28;50.63;;;29.33;;
15931;SDS011;8065;49.520;11.284;2023-02-11T01:01:56;48.47;;;27.77;;
15931;SDS011;8065;49.520;11.284;2023-02-11T01:04:23;51.27;;;28.27;;
15931;SDS011;8065;49.520;11.284;2023-02-11T01:06:49;52.40;;;28.00;;
15931;SDS011;8065;49.520;11.284;2023-02-11T01:09:16;47.97;;;27.80;;
15931;SDS011;8065;49.520;11.284;2023-02-11T01:11:43;49.87;;;28.23;;
15931;SDS011;8065;49.520;11.284;2023-02-11T01:14:10;47.20;;;27.57;;
15931;SDS011;8065;49.520;11.284;2023-02-11T01:16:36;49.07;;;28.67;;
15931;SDS011;8065;49.520;11.284;2023-02-11T01:19:04;48.13;;;28.20;;
15931;SDS011;8065;49.520;11.284;2023-02-11T01:21:31;44.60;;;27.30;;
15931;SDS011;8065;49.520;11.284;2023-02-11T01:23:57;50.70;;;29.47;;
15931;SDS011;8065;49.520;11.284;2023-02-11T01:26:24;47.20;;;27.33;;
15931;SDS011;8065;49.520;11.284;2023-02-11T01:28:50;49.50;;;28.30;;
15931;SDS011;8065;49.520;11.284;2023-02-11T01:31:17;49.80;;;28.00;;
15931;SDS011;8065;49.520;11.284;2023-02-11T01:33:43;50.57;;;27.70;;
15931;SDS011;8065;49.520;11.284;2023-02-11T01:36:11;50.63;;;28.37;;
15931;SDS011;8065;49.520;11.284;2023-02-11T01:38:37;49.50;;;27.83;;
15931;SDS011;8065;49.520;11.284;2023-02-11T01:41:05;46.60;;;26.93;;
15931;SDS011;8065;49.520;11.284;2023-02-11T01:43:34;45.70;;;26.93;;
15931;SDS011;8065;49.520;11.284;2023-02-11T01:46:04;53.00;;;29.00;;
15931;SDS011;8065;49.520;11.284;2023-02-11T01:48:40;48.93;;;28.17;;
15931;SDS011;8065;49.520;11.284;2023-02-11T01:51:10;51.47;;;28.43;;
15931;SDS011;8065;49.520;11.284;2023-02-11T01:53:41;53.43;;;28.60;;
15931;SDS011;8065;49.520;11.284;2023-02-11T01:56:26;51.87;;;28.43;;
15931;SDS011;8065;49.520;11.284;2023-02-11T01:59:16;48.53;;;27.37;;
15931;SDS011;8065;49.520;11.284;2023-02-11T02:01:48;50.97;;;29.20;;
15931;SDS011;8065;49.520;11.284;2023-02-11T02:04:18;47.93;;;28.00;;
15931;SDS011;8065;49.520;11.284;2023-02-11T02:06:48;45.00;;;26.93;;
15931;SDS011;8065;49.520;11.284;2023-02-11T02:09:18;48.30;;;29.17;;
15931;SDS011;8065;49.520;11.284;2023-02-11T02:11:49;47.20;;;28.13;;
15931;SDS011;8065;49.520;11.284;2023-02-11T02:14:16;49.90;;;28.00;;
15931;SDS011;8065;49.520;11.284;2023-02-11T02:16:43;51.53;;;28.40;;
15931;SDS011;8065;49.520;11.284;2023-02-11T02:19:23;47.83;;;27.43;;
15931;SDS011;8065;49.520;11.284;2023-02-11T02:22:09;47.43;;;27.40;;
15931;SDS011;8065;49.520;11.284;2023-02-11T02:25:01;49.60;;;28.43;;
15931;SDS011;8065;49.520;11.284;2023-02-11T02:27:48;50.73;;;27.47;;
15931;SDS011;8065;49.520;11.284;2023-02-11T02:33:25;53.87;;;27.97;;
15931;SDS011;8065;49.520;11.284;2023-02-11T02:36:02;47.60;;;27.27;;
15931;SDS011;8065;49.520;11.284;2023-02-11T02:38:36;50.40;;;27.37;;
15931;SDS011;8065;49.520;11.284;2023-02-11T02:41:06;44.93;;;26.97;;
15931;SDS011;8065;49.520;11.284;2023-02-11T02:43:35;50.80;;;28.73;;
15931;SDS011;8065;49.520;11.284;2023-02-11T02:46:12;49.63;;;27.63;;
15931;SDS011;8065;49.520;11.284;2023-02-11T02:48:42;47.00;;;27.30;;
15931;SDS011;8065;49.520;11.284;2023-02-11T02:51:14;49.17;;;26.90;;
15931;SDS011;8065;49.520;11.284;2023-02-11T02:53:54;48.90;;;27.80;;
15931;SDS011;8065;49.520;11.284;2023-02-11T02:56:30;50.63;;;27.70;;
15931;SDS011;8065;49.520;11.284;2023-02-11T02:59:11;49.00;;;27.20;;
15931;SDS011;8065;49.520;11.284;2023-02-11T03:01:49;43.47;;;25.73;;
15931;SDS011;8065;49.520;11.284;2023-02-11T03:04:25;45.60;;;27.03;;
15931;SDS011;8065;49.520;11.284;2023-02-11T03:06:59;47.40;;;27.77;;
15931;SDS011;8065;49.520;11.284;2023-02-11T03:09:35;44.63;;;26.57;;
15931;SDS011;8065;49.520;11.284;2023-02-11T03:12:05;45.87;;;25.73;;
15931;SDS011;8065;49.520;11.284;2023-02-11T03:14:33;45.07;;;26.30;;
15931;SDS011;8065;49.520;11.284;2023-02-11T03:17:01;46.97;;;26.63;;
15931;SDS011;8065;49.520;11.284;2023-02-11T03:19:33;46.90;;;26.80;;
15931;SDS011;8065;49.520;11.284;2023-02-11T03:22:04;47.10;;;26.83;;
15931;SDS011;8065;49.520;11.284;2023-02-11T03:24:34;45.73;;;25.60;;
15931;SDS011;8065;49.520;11.284;2023-02-11T03:27:06;44.70;;;26.17;;
15931;SDS011;8065;49.520;11.284;2023-02-11T03:29:39;46.63;;;26.73;;
15931;SDS011;8065;49.520;11.284;2023-02-11T03:32:13;40.87;;;25.07;;
15931;SDS011;8065;49.520;11.284;2023-02-11T03:34:44;44.33;;;25.43;;
15931;SDS011;8065;49.520;11.284;2023-02-11T03:37:18;43.20;;;25.43;;
15931;SDS011;8065;49.520;11.284;2023-02-11T03:39:50;42.47;;;25.07;;
15931;SDS011;8065;49.520;11.284;2023-02-11T03:42:19;43.30;;;24.30;;
15931;SDS011;8065;49.520;11.284;2023-02-11T03:44:49;45.90;;;26.70;;
15931;SDS011;8065;49.520;11.284;2023-02-11T03:47:20;47.73;;;27.43;;
15931;SDS011;8065;49.520;11.284;2023-02-11T03:49:52;48.03;;;27.13;;
15931;SDS011;8065;49.520;11.284;2023-02-11T03:52:20;45.20;;;26.10;;
15931;SDS011;8065;49.520;11.284;2023-02-11T03:54:50;45.10;;;25.93;;
15931;SDS011;8065;49.520;11.284;2023-02-11T03:57:21;45.87;;;26.30;;
15931;SDS011;8065;49.520;11.284;2023-02-11T03:59:48;41.77;;;25.67;;
15931;SDS011;8065;49.520;11.284;2023-02-11T04:02:15;42.93;;;26.17;;
15931;SDS011;8065;49.520;11.284;2023-02-11T04:04:42;45.33;;;26.43;;
15931;SDS011;8065;49.520;11.284;2023-02-11T04:07:11;44.47;;;25.83;;
15931;SDS011;8065;49.520;11.284;2023-02-11T04:09:37;44.23;;;25.07;;
15931;SDS011;8065;49.520;11.284;2023-02-11T04:12:04;44.30;;;26.90;;
15931;SDS011;8065;49.520;11.284;2023-02-11T04:14:31;43.37;;;26.40;;
15931;SDS011;8065;49.520;11.284;2023-02-11T04:16:58;43.40;;;25.43;;
15931;SDS011;8065;49.520;11.284;2023-02-11T04:19:24;39.13;;;24.90;;
15931;SDS011;8065;49.520;11.284;2023-02-11T04:21:51;42.13;;;24.97;;
15931;SDS011;8065;49.520;11.284;2023-02-11T04:24:18;46.07;;;25.30;;
15931;SDS011;8065;49.520;11.284;2023-02-11T04:26:45;41.70;;;25.63;;
15931;SDS011;8065;49.520;11.284;2023-02-11T04:29:11;42.93;;;26.17;;
15931;SDS011;8065;49.520;11.284;2023-02-11T04:31:38;42.37;;;25.80;;
15931;SDS011;8065;49.520;11.284;2023-02-11T04:34:04;44.03;;;26.60;;
15931;SDS011;8065;49.520;11.284;2023-02-11T04:36:31;46.50;;;26.77;;
15931;SDS011;8065;49.520;11.284;2023-02-11T04:38:58;44.27;;;26.40;;
15931;SDS011;8065;49.520;11.284;2023-02-11T04:41:25;50.07;;;27.70;;
15931;SDS011;8065;49.520;11.284;2023-02-11T04:43:52;44.73;;;26.53;;
15931;SDS011;8065;49.520;11.284;2023-02-11T04:46:18;43.90;;;25.77;;
15931;SDS011;8065;49.520;11.284;2023-02-11T04:48:45;40.20;;;24.37;;
15931;SDS011;8065;49.520;11.284;2023-02-11T04:51:12;41.40;;;25.20;;
15931;SDS011;8065;49.520;11.284;2023-02-11T04:53:38;42.77;;;24.70;;
15931;SDS011;8065;49.520;11.284;2023-02-11T04:56:05;43.73;;;25.20;;
15931;SDS011;8065;49.520;11.284;2023-02-11T04:58:33;40.77;;;24.27;;
15931;SDS011;8065;49.520;11.284;2023-02-11T05:01:04;47.40;;;26.30;;
15931;SDS011;8065;49.520;11.284;2023-02-11T05:03:31;44.40;;;25.40;;
15931;SDS011;8065;49.520;11.284;2023-02-11T05:05:58;41.93;;;25.10;;
15931;SDS011;8065;49.520;11.284;2023-02-11T05:08:24;44.13;;;24.93;;
15931;SDS011;8065;49.520;11.284;2023-02-11T05:10:51;42.30;;;23.67;;
15931;SDS011;8065;49.520;11.284;2023-02-11T05:13:17;41.00;;;24.77;;
15931;SDS011;8065;49.520;11.284;2023-02-11T05:15:45;39.87;;;23.73;;
15931;SDS011;8065;49.520;11.284;2023-02-11T05:18:12;39.83;;;22.90;;
15931;SDS011;8065;49.520;11.284;2023-02-11T05:20:39;39.50;;;22.73;;
15931;SDS011;8065;49.520;11.284;2023-02-11T05:23:07;37.13;;;23.57;;
15931;SDS011;8065;49.520;11.284;2023-02-11T05:25:33;40.90;;;23.33;;
15931;SDS011;8065;49.520;11.284;2023-02-11T05:28:00;39.33;;;22.77;;
15931;SDS011;8065;49.520;11.284;2023-02-11T05:30:27;35.33;;;21.90;;
15931;SDS011;8065;49.520;11.284;2023-02-11T05:32:55;36.87;;;21.83;;
15931;SDS011;8065;49.520;11.284;2023-02-11T05:35:22;39.13;;;22.97;;
15931;SDS011;8065;49.520;11.284;2023-02-11T05:40:28;39.80;;;22.83;;
15931;SDS011;8065;49.520;11.284;2023-02-11T05:42:54;39.27;;;23.73;;
15931;SDS011;8065;49.520;11.284;2023-02-11T05:45:21;37.97;;;23.47;;
15931;SDS011;8065;49.520;11.284;2023-02-11T05:47:47;40.10;;;24.07;;
15931;SDS011;8065;49.520;11.284;2023-02-11T05:50:15;38.73;;;23.07;;
15931;SDS011;8065;49.520;11.284;2023-02-11T05:52:42;41.53;;;24.77;;
15931;SDS011;8065;49.520;11.284;2023-02-11T05:55:08;41.80;;;24.83;;
15931;SDS011;8065;49.520;11.284;2023-02-11T05:57:35;38.63;;;22.87;;
15931;SDS011;8065;49.520;11.284;2023-02-11T06:00:02;36.47;;;22.33;;
15931;SDS011;8065;49.520;11.284;2023-02-11T06:02:29;37.10;;;23.03;;
15931;SDS011;8065;49.520;11.284;2023-02-11T06:04:56;36.33;;;22.00;;
15931;SDS011;8065;49.520;11.284;2023-02-11T06:07:24;36.27;;;22.17;;
15931;SDS011;8065;49.520;11.284;2023-02-11T06:09:50;38.27;;;22.97;;
15931;SDS011;8065;49.520;11.284;2023-02-11T06:12:17;34.63;;;20.50;;
15931;SDS011;8065;49.520;11.284;2023-02-11T06:14:43;33.17;;;19.93;;
15931;SDS011;8065;49.520;11.284;2023-02-11T06:17:09;30.90;;;19.57;;
15931;SDS011;8065;49.520;11.284;2023-02-11T06:19:36;33.83;;;21.27;;
15931;SDS011;8065;49.520;11.284;2023-02-11T06:22:03;32.67;;;20.47;;
15931;SDS011;8065;49.520;11.284;2023-02-11T06:24:31;33.13;;;19.77;;
15931;SDS011;8065;49.520;11.284;2023-02-11T06:26:57;32.83;;;20.00;;
15931;SDS011;8065;49.520;11.284;2023-02-11T06:29:23;33.97;;;20.97;;
15931;SDS011;8065;49.520;11.284;2023-02-11T06:31:50;32.47;;;20.70;;
15931;SDS011;8065;49.520;11.284;2023-02-11T06:34:16;30.90;;;20.47;;
15931;SDS011;8065;49.520;11.284;2023-02-11T06:36:43;31.90;;;18.77;;
15931;SDS011;8065;49.520;11.284;2023-02-11T06:39:10;32.43;;;19.67;;
15931;SDS011;8065;49.520;11.284;2023-02-11T06:41:38;30.03;;;19.63;;
15931;SDS011;8065;49.520;11.284;2023-02-11T06:44:05;33.37;;;20.57;;
15931;SDS011;8065;49.520;11.284;2023-02-11T06:46:32;32.00;;;19.03;;
15931;SDS011;8065;49.520;11.284;2023-02-11T06:48:58;32.53;;;20.70;;
15931;SDS011;8065;49.520;11.284;2023-02-11T06:51:24;30.07;;;18.67;;
15931;SDS011;8065;49.520;11.284;2023-02-11T06:53:52;30.10;;;19.10;;
15931;SDS011;8065;49.520;11.284;2023-02-11T06:56:20;32.77;;;20.50;;
15931;SDS011;8065;49.520;11.284;2023-02-11T06:58:52;29.67;;;19.63;;
15931;SDS011;8065;49.520;11.284;2023-02-11T07:01:19;32.03;;;20.27;;
15931;SDS011;8065;49.520;11.284;2023-02-11T07:03:46;33.03;;;21.03;;
15931;SDS011;8065;49.520;11.284;2023-02-11T07:06:13;33.90;;;20.30;;
15931;SDS011;8065;49.520;11.284;2023-02-11T07:08:41;32.37;;;20.43;;
15931;SDS011;8065;49.520;11.284;2023-02-11T07:11:10;33.53;;;20.73;;
15931;SDS011;8065;49.520;11.284;2023-02-11T07:13:37;32.60;;;20.73;;
15931;SDS011;8065;49.520;11.284;2023-02-11T07:16:06;33.30;;;20.07;;
15931;SDS011;8065;49.520;11.284;2023-02-11T07:18:33;31.73;;;19.43;;
15931;SDS011;8065;49.520;11.284;2023-02-11T07:21:02;32.27;;;20.33;;
15931;SDS011;8065;49.520;11.284;2023-02-11T07:23:30;35.13;;;21.73;;
15931;SDS011;8065;49.520;11.284;2023-02-11T07:25:56;31.77;;;19.40;;
15931;SDS011;8065;49.520;11.284;2023-02-11T07:28:23;33.80;;;20.20;;
15931;SDS011;8065;49.520;11.284;2023-02-11T07:30:49;30.07;;;19.40;;
15931;SDS011;8065;49.520;11.284;2023-02-11T07:33:17;37.07;;;21.87;;
15931;SDS011;8065;49.520;11.284;2023-02-11T07:35:43;34.07;;;20.93;;
15931;SDS011;8065;49.520;11.284;2023-02-11T07:38:10;32.47;;;20.60;;
15931;SDS011;8065;49.520;11.284;2023-02-11T07:40:36;31.83;;;21.77;;
15931;SDS011;8065;49.520;11.284;2023-02-11T07:43:03;32.23;;;21.03;;
15931;SDS011;8065;49.520;11.284;2023-02-11T07:45:29;33.93;;;22.23;;
15931;SDS011;8065;49.520;11.284;2023-02-11T07:47:56;33.60;;;22.00;;
15931;SDS011;8065;49.520;11.284;2023-02-11T07:50:24;39.73;;;24.73;;
15931;SDS011;8065;49.520;11.284;2023-02-11T07:52:50;40.17;;;24.77;;
15931;SDS011;8065;49.520;11.284;2023-02-11T07:55:17;45.17;;;27.63;;
15931;SDS011;8065;49.520;11.284;2023-02-11T07:57:43;45.70;;;30.43;;
15931;SDS011;8065;49.520;11.284;2023-02-11T08:00:10;41.63;;;26.07;;
15931;SDS011;8065;49.520;11.284;2023-02-11T08:02:37;39.60;;;25.60;;
15931;SDS011;8065;49.520;11.284;2023-02-11T08:05:04;37.60;;;25.33;;
15931;SDS011;8065;49.520;11.284;2023-02-11T08:07:32;42.87;;;27.43;;
15931;SDS011;8065;49.520;11.284;2023-02-11T08:09:59;42.60;;;26.97;;
15931;SDS011;8065;49.520;11.284;2023-02-11T08:12:25;33.03;;;21.47;;
15931;SDS011;8065;49.520;11.284;2023-02-11T08:14:52;32.73;;;20.33;;
15931;SDS011;8065;49.520;11.284;2023-02-11T08:17:19;30.07;;;19.43;;
15931;SDS011;8065;49.520;11.284;2023-02-11T08:19:45;28.43;;;18.13;;
15931;SDS011;8065;49.520;11.284;2023-02-11T08:22:12;27.60;;;18.63;;
15931;SDS011;8065;49.520;11.284;2023-02-11T08:24:39;29.00;;;18.30;;
15931;SDS011;8065;49.520;11.284;2023-02-11T08:27:06;27.93;;;17.53;;
15931;SDS011;8065;49.520;11.284;2023-02-11T08:29:32;26.03;;;17.63;;
15931;SDS011;8065;49.520;11.284;2023-02-11T08:31:59;25.47;;;16.97;;
15931;SDS011;8065;49.520;11.284;2023-02-11T08:34:25;31.23;;;20.17;;
15931;SDS011;8065;49.520;11.284;2023-02-11T08:36:52;27.73;;;18.53;;
15931;SDS011;8065;49.520;11.284;2023-02-11T08:39:19;28.90;;;19.27;;
15931;SDS011;8065;49.520;11.284;2023-02-11T08:41:49;25.73;;;17.80;;
15931;SDS011;8065;49.520;11.284;2023-02-11T08:44:17;23.87;;;16.77;;
15931;SDS011;8065;49.520;11.284;2023-02-11T08:46:45;24.03;;;16.87;;
15931;SDS011;8065;49.520;11.284;2023-02-11T08:49:12;27.93;;;18.60;;
15931;SDS011;8065;49.520;11.284;2023-02-11T08:51:39;25.33;;;16.37;;
15931;SDS011;8065;49.520;11.284;2023-02-11T08:54:06;26.07;;;17.47;;
15931;SDS011;8065;49.520;11.284;2023-02-11T08:56:34;24.90;;;16.20;;
15931;SDS011;8065;49.520;11.284;2023-02-11T08:59:02;26.10;;;16.60;;
15931;SDS011;8065;49.520;11.284;2023-02-11T09:01:29;24.27;;;15.50;;
15931;SDS011;8065;49.520;11.284;2023-02-11T09:03:57;23.67;;;16.33;;
15931;SDS011;8065;49.520;11.284;2023-02-11T09:06:24;22.60;;;16.23;;
15931;SDS011;8065;49.520;11.284;2023-02-11T09:08:53;23.57;;;15.97;;
15931;SDS011;8065;49.520;11.284;2023-02-11T09:11:21;22.70;;;15.73;;
15931;SDS011;8065;49.520;11.284;2023-02-11T09:13:52;27.43;;;19.27;;
15931;SDS011;8065;49.520;11.284;2023-02-11T09:16:21;25.07;;;17.07;;
15931;SDS011;8065;49.520;11.284;2023-02-11T09:18:48;22.10;;;16.00;;
15931;SDS011;8065;49.520;11.284;2023-02-11T09:21:16;26.67;;;16.87;;
15931;SDS011;8065;49.520;11.284;2023-02-11T09:23:43;23.13;;;15.83;;
15931;SDS011;8065;49.520;11.284;2023-02-11T09:26:12;21.10;;;16.03;;
15931;SDS011;8065;49.520;11.284;2023-02-11T09:28:40;29.23;;;16.77;;
15931;SDS011;8065;49.520;11.284;2023-02-11T09:31:07;26.63;;;17.47;;
15931;SDS011;8065;49.520;11.284;2023-02-11T09:33:37;19.83;;;14.40;;
15931;SDS011;8065;49.520;11.284;2023-02-11T09:36:06;24.43;;;16.40;;
15931;SDS011;8065;49.520;11.284;2023-02-11T09:38:33;24.33;;;15.97;;
15931;SDS011;8065;49.520;11.284;2023-02-11T09:41:00;25.53;;;16.77;;
15931;SDS011;8065;49.520;11.284;2023-02-11T09:43:32;25.17;;;16.57;;
15931;SDS011;8065;49.520;11.284;2023-02-11T09:46:04;24.10;;;16.80;;
15931;SDS011;8065;49.520;11.284;2023-02-11T09:48:31;21.70;;;15.33;;
15931;SDS011;8065;49.520;11.284;2023-02-11T09:51:11;23.33;;;14.97;;
15931;SDS011;8065;49.520;11.284;2023-02-11T09:53:44;21.10;;;14.40;;
15931;SDS011;8065;49.520;11.284;2023-02-11T09:56:12;22.07;;;14.97;;
15931;SDS011;8065;49.520;11.284;2023-02-11T09:58:41;24.47;;;15.47;;
15931;SDS011;8065;49.520;11.284;2023-02-11T10:01:12;21.73;;;13.97;;
15931;SDS011;8065;49.520;11.284;2023-02-11T10:03:53;19.73;;;13.77;;
15931;SDS011;8065;49.520;11.284;2023-02-11T10:12:26;20.10;;;14.40;;
15931;SDS011;8065;49.520;11.284;2023-02-11T10:15:07;22.60;;;14.47;;
15931;SDS011;8065;49.520;11.284;2023-02-11T10:17:43;21.17;;;14.20;;
15931;SDS011;8065;49.520;11.284;2023-02-11T10:20:30;24.40;;;15.00;;
15931;SDS011;8065;49.520;11.284;2023-02-11T10:22:59;21.63;;;14.70;;
15931;SDS011;8065;49.520;11.284;2023-02-11T10:25:33;20.17;;;14.57;;
15931;SDS011;8065;49.520;11.284;2023-02-11T10:28:09;19.93;;;14.27;;
15931;SDS011;8065;49.520;11.284;2023-02-11T10:30:39;23.43;;;14.33;;
15931;SDS011;8065;49.520;11.284;2023-02-11T10:33:11;21.93;;;14.50;;
15931;SDS011;8065;49.520;11.284;2023-02-11T10:35:46;23.17;;;14.67;;
15931;SDS011;8065;49.520;11.284;2023-02-11T10:38:13;21.90;;;14.30;;
15931;SDS011;8065;49.520;11.284;2023-02-11T10:40:40;22.37;;;15.30;;
15931;SDS011;8065;49.520;11.284;2023-02-11T10:43:09;21.30;;;14.60;;
15931;SDS011;8065;49.520;11.284;2023-02-11T10:45:40;26.57;;;15.30;;
15931;SDS011;8065;49.520;11.284;2023-02-11T10:51:14;21.30;;;14.77;;
15931;SDS011;8065;49.520;11.284;2023-02-11T10:53:43;20.90;;;14.43;;
15931;SDS011;8065;49.520;11.284;2023-02-11T10:56:10;21.37;;;15.10;;
15931;SDS011;8065;49.520;11.284;2023-02-11T10:58:40;23.40;;;15.30;;
15931;SDS011;8065;49.520;11.284;2023-02-11T11:01:11;21.37;;;15.13;;
15931;SDS011;8065;49.520;11.284;2023-02-11T11:03:39;23.00;;;15.70;;
15931;SDS011;8065;49.520;11.284;2023-02-11T11:06:15;23.77;;;15.40;;
15931;SDS011;8065;49.520;11.284;2023-02-11T11:08:53;24.60;;;15.93;;
15931;SDS011;8065;49.520;11.284;2023-02-11T11:11:21;26.03;;;16.17;;
15931;SDS011;8065;49.520;11.284;2023-02-11T11:13:54;24.07;;;16.10;;
15931;SDS011;8065;49.520;11.284;2023-02-11T11:16:23;23.83;;;16.43;;
15931;SDS011;8065;49.520;11.284;2023-02-11T11:18:52;23.97;;;16.10;;
15931;SDS011;8065;49.520;11.284;2023-02-11T11:21:41;26.73;;;17.00;;
15931;SDS011;8065;49.520;11.284;2023-02-11T11:24:13;24.57;;;16.33;;
15931;SDS011;8065;49.520;11.284;2023-02-11T11:26:43;24.37;;;16.13;;
15931;SDS011;8065;49.520;11.284;2023-02-11T11:29:12;26.20;;;16.23;;
15931;SDS011;8065;49.520;11.284;2023-02-11T11:31:46;26.30;;;16.20;;
15931;SDS011;8065;49.520;11.284;2023-02-11T11:34:19;24.63;;;15.53;;
15931;SDS011;8065;49.520;11.284;2023-02-11T11:36:50;25.10;;;16.70;;
15931;SDS011;8065;49.520;11.284;2023-02-11T11:39:18;23.10;;;16.07;;
15931;SDS011;8065;49.520;11.284;2023-02-11T11:41:48;23.60;;;16.70;;
15931;SDS011;8065;49.520;11.284;2023-02-11T11:44:20;24.87;;;16.30;;
15931;SDS011;8065;49.520;11.284;2023-02-11T11:46:50;21.73;;;14.83;;
15931;SDS011;8065;49.520;11.284;2023-02-11T11:49:31;24.47;;;16.50;;
15931;SDS011;8065;49.520;11.284;2023-02-11T11:52:10;23.43;;;16.70;;
15931;SDS011;8065;49.520;11.284;2023-02-11T11:54:46;27.13;;;16.20;;
15931;SDS011;8065;49.520;11.284;2023-02-11T11:57:19;23.93;;;16.43;;
15931;SDS011;8065;49.520;11.284;2023-02-11T11:59:50;23.53;;;15.80;;
15931;SDS011;8065;49.520;11.284;2023-02-11T12:02:34;21.60;;;15.60;;
15931;SDS011;8065;49.520;11.284;2023-02-11T12:05:16;25.53;;;16.37;;
15931;SDS011;8065;49.520;11.284;2023-02-11T12:07:54;25.40;;;16.03;;
15931;SDS011;8065;49.520;11.284;2023-02-11T12:13:24;20.87;;;14.97;;
15931;SDS011;8065;49.520;11.284;2023-02-11T12:16:02;21.17;;;15.03;;
15931;SDS011;8065;49.520;11.284;2023-02-11T12:18:42;24.27;;;15.80;;
15931;SDS011;8065;49.520;11.284;2023-02-11T12:21:23;22.03;;;15.93;;
15931;SDS011;8065;49.520;11.284;2023-02-11T12:24:05;25.27;;;16.50;;
15931;SDS011;8065;49.520;11.284;2023-02-11T12:26:40;26.30;;;16.90;;
15931;SDS011;8065;49.520;11.284;2023-02-11T12:29:13;24.10;;;16.20;;
15931;SDS011;8065;49.520;11.284;2023-02-11T12:31:58;24.80;;;16.03;;
15931;SDS011;8065;49.520;11.284;2023-02-11T12:34:41;23.10;;;16.00;;
15931;SDS011;8065;49.520;11.284;2023-02-11T12:37:30;23.93;;;16.10;;
15931;SDS011;8065;49.520;11.284;2023-02-11T12:40:11;24.97;;;16.37;;
15931;SDS011;8065;49.520;11.284;2023-02-11T12:42:49;27.47;;;15.73;;
15931;SDS011;8065;49.520;11.284;2023-02-11T12:45:47;23.70;;;16.10;;
15931;SDS011;8065;49.520;11.284;2023-02-11T12:48:29;22.63;;;15.80;;
15931;SDS011;8065;49.520;11.284;2023-02-11T12:51:08;25.23;;;17.30;;
15931;SDS011;8065;49.520;11.284;2023-02-11T12:53:44;23.77;;;16.30;;
15931;SDS011;8065;49.520;11.284;2023-02-11T12:56:25;23.43;;;15.67;;
15931;SDS011;8065;49.520;11.284;2023-02-11T12:58:56;27.13;;;17.57;;
15931;SDS011;8065;49.520;11.284;2023-02-11T13:01:26;23.57;;;16.40;;
15931;SDS011;8065;49.520;11.284;2023-02-11T13:03:58;22.07;;;15.50;;
15931;SDS011;8065;49.520;11.284;2023-02-11T13:06:33;23.77;;;16.97;;
15931;SDS011;8065;49.520;11.284;2023-02-11T13:09:05;27.00;;;16.57;;
15931;SDS011;8065;49.520;11.284;2023-02-11T13:11:38;26.30;;;16.97;;
15931;SDS011;8065;49.520;11.284;2023-02-11T13:14:08;23.03;;;16.47;;
15931;SDS011;8065;49.520;11.284;2023-02-11T13:16:40;24.77;;;15.67;;
15931;SDS011;8065;49.520;11.284;2023-02-11T13:19:13;24.53;;;15.30;;
15931;SDS011;8065;49.520;11.284;2023-02-11T13:21:55;23.97;;;16.20;;
15931;SDS011;8065;49.520;11.284;2023-02-11T13:24:35;24.47;;;16.60;;
15931;SDS011;8065;49.520;11.284;2023-02-11T13:27:10;22.93;;;15.77;;
15931;SDS011;8065;49.520;11.284;2023-02-11T13:30:12;23.97;;;15.57;;
15931;SDS011;8065;49.520;11.284;2023-02-11T13:33:03;23.67;;;16.23;;
15931;SDS011;8065;49.520;11.284;2023-02-11T13:35:32;22.73;;;15.23;;
15931;SDS011;8065;49.520;11.284;2023-02-11T13:37:59;23.30;;;14.87;;
15931;SDS011;8065;49.520;11.284;2023-02-11T13:40:29;23.70;;;15.60;;
15931;SDS011;8065;49.520;11.284;2023-02-11T13:43:00;24.33;;;16.63;;
15931;SDS011;8065;49.520;11.284;2023-02-11T13:45:29;22.70;;;17.13;;
15931;SDS011;8065;49.520;11.284;2023-02-11T13:47:59;26.27;;;15.83;;
15931;SDS011;8065;49.520;11.284;2023-02-11T13:50:28;23.67;;;16.47;;
15931;SDS011;8065;49.520;11.284;2023-02-11T13:53:00;25.40;;;16.33;;
15931;SDS011;8065;49.520;11.284;2023-02-11T13:55:29;24.10;;;17.53;;
15931;SDS011;8065;49.520;11.284;2023-02-11T13:58:16;24.27;;;16.90;;
15931;SDS011;8065;49.520;11.284;2023-02-11T14:00:58;25.40;;;16.83;;
15931;SDS011;8065;49.520;11.284;2023-02-11T14:03:26;22.07;;;15.67;;
15931;SDS011;8065;49.520;11.284;2023-02-11T14:06:13;27.23;;;17.10;;
15931;SDS011;8065;49.520;11.284;2023-02-11T14:17:46;23.23;;;14.70;;
15931;SDS011;8065;49.520;11.284;2023-02-11T14:20:32;25.83;;;14.70;;
15931;SDS011;8065;49.520;11.284;2023-02-11T14:23:02;22.73;;;16.03;;
15931;SDS011;8065;49.520;11.284;2023-02-11T14:25:29;22.70;;;15.97;;
15931;SDS011;8065;49.520;11.284;2023-02-11T14:27:57;24.47;;;16.17;;
15931;SDS011;8065;49.520;11.284;2023-02-11T14:30:35;22.53;;;15.40;;
15931;SDS011;8065;49.520;11.284;2023-02-11T14:33:32;26.50;;;16.27;;
15931;SDS011;8065;49.520;11.284;2023-02-11T14:36:13;25.37;;;15.73;;
15931;SDS011;8065;49.520;11.284;2023-02-11T14:38:51;26.20;;;17.07;;
15931;SDS011;8065;49.520;11.284;2023-02-11T14:41:26;25.23;;;17.07;;
15931;SDS011;8065;49.520;11.284;2023-02-11T14:43:56;25.67;;;16.53;;
15931;SDS011;8065;49.520;11.284;2023-02-11T14:46:26;22.43;;;16.60;;
15931;SDS011;8065;49.520;11.284;2023-02-11T14:48:57;26.03;;;16.83;;
15931;SDS011;8065;49.520;11.284;2023-02-11T14:51:26;21.87;;;15.47;;
15931;SDS011;8065;49.520;11.284;2023-02-11T14:53:56;28.33;;;17.63;;
15931;SDS011;8065;49.520;11.284;2023-02-11T14:56:27;23.70;;;16.13;;
15931;SDS011;8065;49.520;11.284;2023-02-11T14:58:56;24.80;;;16.57;;
15931;SDS011;8065;49.520;11.284;2023-02-11T15:01:26;24.13;;;16.63;;
15931;SDS011;8065;49.520;11.284;2023-02-11T15:03:55;24.93;;;16.20;;
15931;SDS011;8065;49.520;11.284;2023-02-11T15:06:23;24.50;;;16.80;;